sensor_id;sensor_type;location;lat;lon;timestamp;temperature;humidity
11107;DHT22;5607;48.302;14.294;2022-10-19T00:01:57;15.60;99.90
11107;DHT22;5607;48.302;14.294;2022-10-19T00:04:43;15.60;99.90
11107;DHT22;5607;48.302;14.294;2022-10-19T00:07:29;15.60;99.90
11107;DHT22;5607;48.302;14.294;2022-10-19T00:10:16;15.60;99.90
11107;DHT22;5607;48.302;14.294;2022-10-19T00:13:02;15.60;99.90
11107;DHT22;5607;48.302;14.294;2022-10-19T00:15:48;15.60;99.90
11107;DHT22;5607;48.302;14.294;2022-10-19T00:18:34;15.60;99.90
11107;DHT22;5607;48.302;14.294;2022-10-19T00:21:21;15.50;99.90
11107;DHT22;5607;48.302;14.294;2022-10-19T00:24:08;15.60;99.90
11107;DHT22;5607;48.302;14.294;2022-10-19T00:26:54;15.60;99.90
11107;DHT22;5607;48.302;14.294;2022-10-19T00:29:40;15.50;99.90
11107;DHT22;5607;48.302;14.294;2022-10-19T00:32:27;15.50;99.90
11107;DHT22;5607;48.302;14.294;2022-10-19T00:35:13;15.50;99.90
11107;DHT22;5607;48.302;14.294;2022-10-19T00:37:59;15.50;99.90
11107;DHT22;5607;48.302;14.294;2022-10-19T00:40:46;15.50;99.90
11107;DHT22;5607;48.302;14.294;2022-10-19T00:43:48;15.60;99.90
11107;DHT22;5607;48.302;14.294;2022-10-19T00:46:36;15.60;99.90
11107;DHT22;5607;48.302;14.294;2022-10-19T00:49:23;15.50;99.90
11107;DHT22;5607;48.302;14.294;2022-10-19T00:52:12;15.50;99.90
11107;DHT22;5607;48.302;14.294;2022-10-19T00:54:59;15.50;99.90
11107;DHT22;5607;48.302;14.294;2022-10-19T00:57:45;15.40;99.90
11107;DHT22;5607;48.302;14.294;2022-10-19T01:00:32;15.30;99.90
11107;DHT22;5607;48.302;14.294;2022-10-19T01:03:19;15.30;99.90
11107;DHT22;5607;48.302;14.294;2022-10-19T01:06:06;15.30;99.90
11107;DHT22;5607;48.302;14.294;2022-10-19T01:08:53;15.20;99.90
11107;DHT22;5607;48.302;14.294;2022-10-19T01:11:53;15.30;99.90
11107;DHT22;5607;48.302;14.294;2022-10-19T01:14:58;15.20;99.90
11107;DHT22;5607;48.302;14.294;2022-10-19T01:35:50;15.20;99.90
11107;DHT22;5607;48.302;14.294;2022-10-19T01:38:49;15.20;99.90
11107;DHT22;5607;48.302;14.294;2022-10-19T01:41:42;15.20;99.90
11107;DHT22;5607;48.302;14.294;2022-10-19T01:44:36;15.30;99.90
11107;DHT22;5607;48.302;14.294;2022-10-19T01:47:25;15.40;99.90
11107;DHT22;5607;48.302;14.294;2022-10-19T01:50:33;15.40;99.90
11107;DHT22;5607;48.302;14.294;2022-10-19T01:53:20;15.40;99.90
11107;DHT22;5607;48.302;14.294;2022-10-19T01:56:08;15.40;99.90
11107;DHT22;5607;48.302;14.294;2022-10-19T01:58:56;15.50;99.90
11107;DHT22;5607;48.302;14.294;2022-10-19T02:01:44;15.50;99.90
11107;DHT22;5607;48.302;14.294;2022-10-19T02:04:32;15.50;99.90
11107;DHT22;5607;48.302;14.294;2022-10-19T02:07:19;15.50;99.90
11107;DHT22;5607;48.302;14.294;2022-10-19T02:10:06;15.60;99.90
11107;DHT22;5607;48.302;14.294;2022-10-19T02:12:53;15.60;99.90
11107;DHT22;5607;48.302;14.294;2022-10-19T02:15:40;15.60;99.90
11107;DHT22;5607;48.302;14.294;2022-10-19T02:18:29;15.60;99.90
11107;DHT22;5607;48.302;14.294;2022-10-19T02:21:17;15.70;99.90
11107;DHT22;5607;48.302;14.294;2022-10-19T02:24:03;15.70;99.90
11107;DHT22;5607;48.302;14.294;2022-10-19T02:26:50;15.70;99.90
11107;DHT22;5607;48.302;14.294;2022-10-19T02:29:36;15.70;99.90
11107;DHT22;5607;48.302;14.294;2022-10-19T02:32:24;15.70;99.90
11107;DHT22;5607;48.302;14.294;2022-10-19T02:35:10;15.60;99.90
11107;DHT22;5607;48.302;14.294;2022-10-19T02:37:57;15.60;99.90
11107;DHT22;5607;48.302;14.294;2022-10-19T02:40:53;15.60;99.90
11107;DHT22;5607;48.302;14.294;2022-10-19T02:43:44;15.60;99.90
11107;DHT22;5607;48.302;14.294;2022-10-19T02:49:22;15.60;99.90
11107;DHT22;5607;48.302;14.294;2022-10-19T02:52:09;15.60;99.90
11107;DHT22;5607;48.302;14.294;2022-10-19T02:54:56;15.60;99.90
11107;DHT22;5607;48.302;14.294;2022-10-19T02:57:42;15.50;99.90
11107;DHT22;5607;48.302;14.294;2022-10-19T03:00:28;15.50;99.90
11107;DHT22;5607;48.302;14.294;2022-10-19T03:03:15;15.50;99.90
11107;DHT22;5607;48.302;14.294;2022-10-19T03:06:01;15.50;99.90
11107;DHT22;5607;48.302;14.294;2022-10-19T03:08:47;15.60;99.90
11107;DHT22;5607;48.302;14.294;2022-10-19T03:11:33;15.60;99.90
11107;DHT22;5607;48.302;14.294;2022-10-19T03:14:20;15.60;99.90
11107;DHT22;5607;48.302;14.294;2022-10-19T03:17:07;15.60;99.90
11107;DHT22;5607;48.302;14.294;2022-10-19T03:19:54;15.60;99.90
11107;DHT22;5607;48.302;14.294;2022-10-19T03:22:40;15.60;99.90
11107;DHT22;5607;48.302;14.294;2022-10-19T03:25:26;15.60;99.90
11107;DHT22;5607;48.302;14.294;2022-10-19T03:28:12;15.60;99.90
11107;DHT22;5607;48.302;14.294;2022-10-19T03:30:59;15.60;99.90
11107;DHT22;5607;48.302;14.294;2022-10-19T03:33:45;15.70;99.90
11107;DHT22;5607;48.302;14.294;2022-10-19T03:36:32;15.60;99.90
11107;DHT22;5607;48.302;14.294;2022-10-19T03:39:19;15.60;99.90
11107;DHT22;5607;48.302;14.294;2022-10-19T03:42:05;15.60;99.90
11107;DHT22;5607;48.302;14.294;2022-10-19T03:44:52;15.60;99.90
11107;DHT22;5607;48.302;14.294;2022-10-19T03:47:38;15.60;99.90
11107;DHT22;5607;48.302;14.294;2022-10-19T03:50:25;15.50;99.90
11107;DHT22;5607;48.302;14.294;2022-10-19T03:53:11;15.60;99.90
11107;DHT22;5607;48.302;14.294;2022-10-19T03:56:04;15.60;99.90
11107;DHT22;5607;48.302;14.294;2022-10-19T03:58:52;15.50;99.90
11107;DHT22;5607;48.302;14.294;2022-10-19T04:01:40;15.50;99.90
11107;DHT22;5607;48.302;14.294;2022-10-19T04:04:26;15.60;99.90
11107;DHT22;5607;48.302;14.294;2022-10-19T04:07:12;15.60;99.90
11107;DHT22;5607;48.302;14.294;2022-10-19T04:09:59;15.60;99.90
11107;DHT22;5607;48.302;14.294;2022-10-19T04:12:46;15.60;99.90
11107;DHT22;5607;48.302;14.294;2022-10-19T04:15:32;15.60;99.90
11107;DHT22;5607;48.302;14.294;2022-10-19T04:18:18;15.50;99.90
11107;DHT22;5607;48.302;14.294;2022-10-19T04:21:05;15.50;99.90
11107;DHT22;5607;48.302;14.294;2022-10-19T04:23:55;15.50;99.90
11107;DHT22;5607;48.302;14.294;2022-10-19T04:26:43;15.50;99.90
11107;DHT22;5607;48.302;14.294;2022-10-19T04:29:29;15.50;99.90
11107;DHT22;5607;48.302;14.294;2022-10-19T04:32:15;15.50;99.90
11107;DHT22;5607;48.302;14.294;2022-10-19T04:35:02;15.60;99.90
11107;DHT22;5607;48.302;14.294;2022-10-19T04:37:48;15.50;99.90
11107;DHT22;5607;48.302;14.294;2022-10-19T04:40:35;15.50;99.90
11107;DHT22;5607;48.302;14.294;2022-10-19T04:43:21;15.60;99.90
11107;DHT22;5607;48.302;14.294;2022-10-19T04:46:08;15.60;99.90
11107;DHT22;5607;48.302;14.294;2022-10-19T04:48:55;15.60;99.90
11107;DHT22;5607;48.302;14.294;2022-10-19T04:51:42;15.50;99.90
11107;DHT22;5607;48.302;14.294;2022-10-19T04:54:28;15.50;99.90
11107;DHT22;5607;48.302;14.294;2022-10-19T04:57:14;15.50;99.90
11107;DHT22;5607;48.302;14.294;2022-10-19T05:00:01;15.50;99.90
11107;DHT22;5607;48.302;14.294;2022-10-19T05:02:47;15.50;99.90
11107;DHT22;5607;48.302;14.294;2022-10-19T05:05:33;15.50;99.90
11107;DHT22;5607;48.302;14.294;2022-10-19T05:08:20;15.60;99.90
11107;DHT22;5607;48.302;14.294;2022-10-19T05:11:07;15.60;99.90
11107;DHT22;5607;48.302;14.294;2022-10-19T05:13:55;15.60;99.90
11107;DHT22;5607;48.302;14.294;2022-10-19T05:16:41;15.60;99.90
11107;DHT22;5607;48.302;14.294;2022-10-19T05:19:27;15.60;99.90
11107;DHT22;5607;48.302;14.294;2022-10-19T05:22:13;15.60;99.90
11107;DHT22;5607;48.302;14.294;2022-10-19T05:25:00;15.60;99.90
11107;DHT22;5607;48.302;14.294;2022-10-19T05:27:50;15.60;99.90
11107;DHT22;5607;48.302;14.294;2022-10-19T05:30:37;15.60;99.90
11107;DHT22;5607;48.302;14.294;2022-10-19T05:33:24;15.60;99.90
11107;DHT22;5607;48.302;14.294;2022-10-19T05:39:01;15.60;99.90
11107;DHT22;5607;48.302;14.294;2022-10-19T05:41:47;15.60;99.90
11107;DHT22;5607;48.302;14.294;2022-10-19T05:44:33;15.60;99.90
11107;DHT22;5607;48.302;14.294;2022-10-19T05:47:20;15.70;99.90
11107;DHT22;5607;48.302;14.294;2022-10-19T05:50:07;15.70;99.90
11107;DHT22;5607;48.302;14.294;2022-10-19T05:52:53;15.60;99.90
11107;DHT22;5607;48.302;14.294;2022-10-19T05:55:39;15.60;99.90
11107;DHT22;5607;48.302;14.294;2022-10-19T05:58:25;15.60;99.90
11107;DHT22;5607;48.302;14.294;2022-10-19T06:01:12;15.50;99.90
11107;DHT22;5607;48.302;14.294;2022-10-19T06:03:59;15.60;99.90
11107;DHT22;5607;48.302;14.294;2022-10-19T06:06:46;15.50;99.90
11107;DHT22;5607;48.302;14.294;2022-10-19T06:09:33;15.60;99.90
11107;DHT22;5607;48.302;14.294;2022-10-19T06:12:21;15.60;99.90
11107;DHT22;5607;48.302;14.294;2022-10-19T06:15:07;15.60;99.90
11107;DHT22;5607;48.302;14.294;2022-10-19T06:17:53;15.70;99.90
11107;DHT22;5607;48.302;14.294;2022-10-19T06:20:41;15.70;99.90
11107;DHT22;5607;48.302;14.294;2022-10-19T06:23:28;15.70;99.90
11107;DHT22;5607;48.302;14.294;2022-10-19T06:26:14;15.70;99.90
11107;DHT22;5607;48.302;14.294;2022-10-19T06:29:01;15.70;99.90
11107;DHT22;5607;48.302;14.294;2022-10-19T06:31:47;15.70;99.90
11107;DHT22;5607;48.302;14.294;2022-10-19T06:34:34;15.80;99.90
11107;DHT22;5607;48.302;14.294;2022-10-19T06:37:20;15.90;99.90
11107;DHT22;5607;48.302;14.294;2022-10-19T06:40:06;16.00;99.90
11107;DHT22;5607;48.302;14.294;2022-10-19T06:42:53;16.10;99.90
11107;DHT22;5607;48.302;14.294;2022-10-19T06:45:39;16.10;79.10
11107;DHT22;5607;48.302;14.294;2022-10-19T06:48:26;16.20;76.70
11107;DHT22;5607;48.302;14.294;2022-10-19T06:51:12;16.20;55.90
11107;DHT22;5607;48.302;14.294;2022-10-19T06:53:58;16.30;65.50
11107;DHT22;5607;48.302;14.294;2022-10-19T06:56:45;16.40;51.30
11107;DHT22;5607;48.302;14.294;2022-10-19T06:59:31;16.40;48.90
11107;DHT22;5607;48.302;14.294;2022-10-19T07:02:17;16.40;44.20
11107;DHT22;5607;48.302;14.294;2022-10-19T07:05:03;16.50;50.90
11107;DHT22;5607;48.302;14.294;2022-10-19T07:07:50;16.60;36.40
11107;DHT22;5607;48.302;14.294;2022-10-19T07:10:36;16.60;29.10
11107;DHT22;5607;48.302;14.294;2022-10-19T07:13:22;16.60;30.70
11107;DHT22;5607;48.302;14.294;2022-10-19T07:16:10;16.70;15.60
11107;DHT22;5607;48.302;14.294;2022-10-19T07:18:56;16.60;8.80
11107;DHT22;5607;48.302;14.294;2022-10-19T07:21:50;16.70;11.60
11107;DHT22;5607;48.302;14.294;2022-10-19T07:24:36;16.70;7.70
11107;DHT22;5607;48.302;14.294;2022-10-19T07:27:23;16.70;6.10
11107;DHT22;5607;48.302;14.294;2022-10-19T07:30:09;16.60;12.80
11107;DHT22;5607;48.302;14.294;2022-10-19T07:32:56;16.50;21.10
11107;DHT22;5607;48.302;14.294;2022-10-19T07:35:43;16.50;27.70
11107;DHT22;5607;48.302;14.294;2022-10-19T07:38:29;16.60;30.20
11107;DHT22;5607;48.302;14.294;2022-10-19T07:41:17;16.70;15.70
11107;DHT22;5607;48.302;14.294;2022-10-19T07:44:03;16.80;17.40
11107;DHT22;5607;48.302;14.294;2022-10-19T07:46:50;16.90;11.60
11107;DHT22;5607;48.302;14.294;2022-10-19T07:49:36;17.00;1.00
11107;DHT22;5607;48.302;14.294;2022-10-19T07:52:23;17.10;1.00
11107;DHT22;5607;48.302;14.294;2022-10-19T07:55:09;17.20;1.00
11107;DHT22;5607;48.302;14.294;2022-10-19T07:57:55;17.30;1.00
11107;DHT22;5607;48.302;14.294;2022-10-19T08:00:46;17.40;1.00
11107;DHT22;5607;48.302;14.294;2022-10-19T08:03:33;17.40;1.00
11107;DHT22;5607;48.302;14.294;2022-10-19T08:06:19;17.40;1.00
11107;DHT22;5607;48.302;14.294;2022-10-19T08:09:05;17.40;1.00
11107;DHT22;5607;48.302;14.294;2022-10-19T08:11:51;17.40;1.00
11107;DHT22;5607;48.302;14.294;2022-10-19T08:14:39;17.40;1.00
11107;DHT22;5607;48.302;14.294;2022-10-19T08:17:27;17.50;1.00
11107;DHT22;5607;48.302;14.294;2022-10-19T08:20:13;17.50;1.00
11107;DHT22;5607;48.302;14.294;2022-10-19T08:22:59;17.60;1.00
11107;DHT22;5607;48.302;14.294;2022-10-19T08:25:47;17.60;1.00
11107;DHT22;5607;48.302;14.294;2022-10-19T08:28:33;17.60;1.00
11107;DHT22;5607;48.302;14.294;2022-10-19T08:31:20;17.80;1.00
11107;DHT22;5607;48.302;14.294;2022-10-19T08:34:06;17.80;1.00
11107;DHT22;5607;48.302;14.294;2022-10-19T08:36:55;17.90;1.00
11107;DHT22;5607;48.302;14.294;2022-10-19T08:39:41;18.00;1.00
11107;DHT22;5607;48.302;14.294;2022-10-19T08:42:30;18.10;1.00
11107;DHT22;5607;48.302;14.294;2022-10-19T08:51:04;18.30;1.00
11107;DHT22;5607;48.302;14.294;2022-10-19T08:53:54;18.50;1.00
11107;DHT22;5607;48.302;14.294;2022-10-19T08:56:46;18.50;1.00
11107;DHT22;5607;48.302;14.294;2022-10-19T08:59:39;18.70;1.00
11107;DHT22;5607;48.302;14.294;2022-10-19T09:02:33;18.70;1.00
11107;DHT22;5607;48.302;14.294;2022-10-19T09:08:08;18.40;1.00
11107;DHT22;5607;48.302;14.294;2022-10-19T09:10:54;18.40;1.00
11107;DHT22;5607;48.302;14.294;2022-10-19T09:13:46;18.50;1.00
11107;DHT22;5607;48.302;14.294;2022-10-19T09:16:32;18.60;1.00
11107;DHT22;5607;48.302;14.294;2022-10-19T09:19:20;18.70;1.00
11107;DHT22;5607;48.302;14.294;2022-10-19T09:22:24;18.60;1.00
11107;DHT22;5607;48.302;14.294;2022-10-19T09:25:13;18.80;1.00
11107;DHT22;5607;48.302;14.294;2022-10-19T09:28:10;18.70;1.00
11107;DHT22;5607;48.302;14.294;2022-10-19T09:30:57;18.70;1.00
11107;DHT22;5607;48.302;14.294;2022-10-19T09:33:45;18.60;1.00
11107;DHT22;5607;48.302;14.294;2022-10-19T09:36:40;18.80;1.00
11107;DHT22;5607;48.302;14.294;2022-10-19T09:39:28;18.60;1.00
11107;DHT22;5607;48.302;14.294;2022-10-19T09:45:24;18.40;1.00
11107;DHT22;5607;48.302;14.294;2022-10-19T09:48:16;18.20;1.00
11107;DHT22;5607;48.302;14.294;2022-10-19T09:51:15;18.00;1.00
11107;DHT22;5607;48.302;14.294;2022-10-19T09:54:01;18.00;1.00
11107;DHT22;5607;48.302;14.294;2022-10-19T09:56:51;18.00;1.00
11107;DHT22;5607;48.302;14.294;2022-10-19T09:59:38;18.00;1.00
11107;DHT22;5607;48.302;14.294;2022-10-19T10:02:28;18.00;1.00
11107;DHT22;5607;48.302;14.294;2022-10-19T10:05:15;18.00;1.00
11107;DHT22;5607;48.302;14.294;2022-10-19T10:08:02;18.10;1.00
11107;DHT22;5607;48.302;14.294;2022-10-19T10:10:54;18.20;1.00
11107;DHT22;5607;48.302;14.294;2022-10-19T10:13:47;18.30;1.00
11107;DHT22;5607;48.302;14.294;2022-10-19T10:16:34;18.50;1.00
11107;DHT22;5607;48.302;14.294;2022-10-19T10:19:21;18.30;1.00
11107;DHT22;5607;48.302;14.294;2022-10-19T10:22:20;18.30;1.00
11107;DHT22;5607;48.302;14.294;2022-10-19T10:25:14;18.20;1.00
11107;DHT22;5607;48.302;14.294;2022-10-19T10:28:23;18.30;1.00
11107;DHT22;5607;48.302;14.294;2022-10-19T10:31:07;18.20;1.00
11107;DHT22;5607;48.302;14.294;2022-10-19T10:33:56;18.20;1.00
11107;DHT22;5607;48.302;14.294;2022-10-19T10:36:43;18.30;1.00
11107;DHT22;5607;48.302;14.294;2022-10-19T10:39:29;18.60;1.00
11107;DHT22;5607;48.302;14.294;2022-10-19T10:42:16;18.80;1.00
11107;DHT22;5607;48.302;14.294;2022-10-19T10:45:04;18.80;1.00
11107;DHT22;5607;48.302;14.294;2022-10-19T10:48:05;18.80;1.00
11107;DHT22;5607;48.302;14.294;2022-10-19T10:50:56;18.60;1.00
11107;DHT22;5607;48.302;14.294;2022-10-19T10:53:42;18.70;1.00
11107;DHT22;5607;48.302;14.294;2022-10-19T10:56:29;18.80;1.00
11107;DHT22;5607;48.302;14.294;2022-10-19T10:59:22;19.00;1.00
11107;DHT22;5607;48.302;14.294;2022-10-19T11:05:27;19.00;1.00
11107;DHT22;5607;48.302;14.294;2022-10-19T11:11:21;19.00;1.00
11107;DHT22;5607;48.302;14.294;2022-10-19T11:17:23;19.10;1.00
11107;DHT22;5607;48.302;14.294;2022-10-19T11:20:13;19.10;1.00
11107;DHT22;5607;48.302;14.294;2022-10-19T11:29:57;19.40;1.00
11107;DHT22;5607;48.302;14.294;2022-10-19T11:32:45;19.70;1.00
11107;DHT22;5607;48.302;14.294;2022-10-19T11:35:39;19.90;1.00
11107;DHT22;5607;48.302;14.294;2022-10-19T11:38:39;20.10;1.00
11107;DHT22;5607;48.302;14.294;2022-10-19T11:41:31;20.20;1.00
11107;DHT22;5607;48.302;14.294;2022-10-19T11:50:24;20.30;1.00
11107;DHT22;5607;48.302;14.294;2022-10-19T11:56:38;20.60;99.90
11107;DHT22;5607;48.302;14.294;2022-10-19T12:14:14;21.60;99.90
11107;DHT22;5607;48.302;14.294;2022-10-19T12:17:04;21.60;99.90
11107;DHT22;5607;48.302;14.294;2022-10-19T12:19:54;21.40;99.90
11107;DHT22;5607;48.302;14.294;2022-10-19T12:22:41;21.10;99.90
11107;DHT22;5607;48.302;14.294;2022-10-19T12:25:28;21.00;99.90
11107;DHT22;5607;48.302;14.294;2022-10-19T12:28:17;21.30;99.90
11107;DHT22;5607;48.302;14.294;2022-10-19T12:31:05;21.50;99.90
11107;DHT22;5607;48.302;14.294;2022-10-19T12:33:55;21.60;99.90
11107;DHT22;5607;48.302;14.294;2022-10-19T12:36:47;21.80;99.90
11107;DHT22;5607;48.302;14.294;2022-10-19T12:39:40;21.70;99.90
11107;DHT22;5607;48.302;14.294;2022-10-19T12:42:30;21.90;99.90
11107;DHT22;5607;48.302;14.294;2022-10-19T12:45:35;21.90;99.90
11107;DHT22;5607;48.302;14.294;2022-10-19T12:48:24;21.80;99.90
11107;DHT22;5607;48.302;14.294;2022-10-19T12:51:11;21.90;99.90
11107;DHT22;5607;48.302;14.294;2022-10-19T12:54:08;21.80;99.90
11107;DHT22;5607;48.302;14.294;2022-10-19T12:56:55;22.00;99.90
11107;DHT22;5607;48.302;14.294;2022-10-19T12:59:41;22.10;99.90
11107;DHT22;5607;48.302;14.294;2022-10-19T13:02:31;22.20;99.90
11107;DHT22;5607;48.302;14.294;2022-10-19T13:05:19;22.20;99.90
11107;DHT22;5607;48.302;14.294;2022-10-19T13:08:06;22.00;99.90
11107;DHT22;5607;48.302;14.294;2022-10-19T13:11:05;21.80;99.90
11107;DHT22;5607;48.302;14.294;2022-10-19T13:13:56;21.30;99.90
11107;DHT22;5607;48.302;14.294;2022-10-19T13:25:45;21.10;99.90
11107;DHT22;5607;48.302;14.294;2022-10-19T13:28:35;20.90;99.90
11107;DHT22;5607;48.302;14.294;2022-10-19T13:31:23;20.90;99.90
11107;DHT22;5607;48.302;14.294;2022-10-19T13:34:10;20.80;99.90
11107;DHT22;5607;48.302;14.294;2022-10-19T13:37:01;20.80;99.90
11107;DHT22;5607;48.302;14.294;2022-10-19T13:39:48;20.70;99.90
11107;DHT22;5607;48.302;14.294;2022-10-19T13:42:34;20.80;99.90
11107;DHT22;5607;48.302;14.294;2022-10-19T13:45:21;20.60;99.90
11107;DHT22;5607;48.302;14.294;2022-10-19T13:48:15;20.50;99.90
11107;DHT22;5607;48.302;14.294;2022-10-19T13:51:06;20.70;99.90
11107;DHT22;5607;48.302;14.294;2022-10-19T13:54:00;20.80;99.90
11107;DHT22;5607;48.302;14.294;2022-10-19T13:59:46;21.00;99.90
11107;DHT22;5607;48.302;14.294;2022-10-19T14:02:49;21.20;99.90
11107;DHT22;5607;48.302;14.294;2022-10-19T14:05:46;21.10;99.90
11107;DHT22;5607;48.302;14.294;2022-10-19T14:08:43;21.20;99.90
11107;DHT22;5607;48.302;14.294;2022-10-19T14:11:31;21.20;99.90
11107;DHT22;5607;48.302;14.294;2022-10-19T14:14:22;21.20;99.90
11107;DHT22;5607;48.302;14.294;2022-10-19T14:17:12;21.20;99.90
11107;DHT22;5607;48.302;14.294;2022-10-19T14:19:58;21.30;99.90
11107;DHT22;5607;48.302;14.294;2022-10-19T14:22:46;21.40;99.90
11107;DHT22;5607;48.302;14.294;2022-10-19T14:25:32;21.50;99.90
11107;DHT22;5607;48.302;14.294;2022-10-19T14:28:19;21.50;99.90
11107;DHT22;5607;48.302;14.294;2022-10-19T14:31:07;21.60;99.90
11107;DHT22;5607;48.302;14.294;2022-10-19T14:33:55;21.50;99.90
11107;DHT22;5607;48.302;14.294;2022-10-19T14:36:43;21.40;99.90
11107;DHT22;5607;48.302;14.294;2022-10-19T14:39:30;21.20;99.90
11107;DHT22;5607;48.302;14.294;2022-10-19T14:42:17;21.00;99.90
11107;DHT22;5607;48.302;14.294;2022-10-19T14:45:05;20.90;99.90
11107;DHT22;5607;48.302;14.294;2022-10-19T14:48:04;20.70;99.90
11107;DHT22;5607;48.302;14.294;2022-10-19T14:50:52;20.50;99.90
11107;DHT22;5607;48.302;14.294;2022-10-19T14:53:44;20.40;99.90
11107;DHT22;5607;48.302;14.294;2022-10-19T14:59:38;20.40;99.90
11107;DHT22;5607;48.302;14.294;2022-10-19T15:05:22;20.40;99.90
11107;DHT22;5607;48.302;14.294;2022-10-19T15:11:26;20.10;99.90
11107;DHT22;5607;48.302;14.294;2022-10-19T15:14:14;20.10;99.90
11107;DHT22;5607;48.302;14.294;2022-10-19T15:17:03;19.90;99.90
11107;DHT22;5607;48.302;14.294;2022-10-19T15:19:51;19.90;99.90
11107;DHT22;5607;48.302;14.294;2022-10-19T15:22:38;19.80;99.90
11107;DHT22;5607;48.302;14.294;2022-10-19T15:25:29;19.50;99.90
11107;DHT22;5607;48.302;14.294;2022-10-19T15:28:19;19.40;99.90
11107;DHT22;5607;48.302;14.294;2022-10-19T15:31:25;19.30;99.90
11107;DHT22;5607;48.302;14.294;2022-10-19T15:34:19;19.30;99.90
11107;DHT22;5607;48.302;14.294;2022-10-19T15:37:12;19.10;99.90
11107;DHT22;5607;48.302;14.294;2022-10-19T15:40:07;19.00;99.90
11107;DHT22;5607;48.302;14.294;2022-10-19T15:42:54;18.90;99.90
11107;DHT22;5607;48.302;14.294;2022-10-19T15:45:40;18.70;99.90
11107;DHT22;5607;48.302;14.294;2022-10-19T15:48:28;18.60;99.90
11107;DHT22;5607;48.302;14.294;2022-10-19T15:54:12;18.40;99.90
11107;DHT22;5607;48.302;14.294;2022-10-19T15:57:02;18.20;99.90
11107;DHT22;5607;48.302;14.294;2022-10-19T15:59:48;18.20;99.90
11107;DHT22;5607;48.302;14.294;2022-10-19T16:02:34;18.10;99.90
11107;DHT22;5607;48.302;14.294;2022-10-19T16:05:21;18.10;99.90
11107;DHT22;5607;48.302;14.294;2022-10-19T16:08:08;18.00;99.90
11107;DHT22;5607;48.302;14.294;2022-10-19T16:10:54;17.90;99.90
11107;DHT22;5607;48.302;14.294;2022-10-19T16:13:40;17.80;99.90
11107;DHT22;5607;48.302;14.294;2022-10-19T16:16:28;17.80;99.90
11107;DHT22;5607;48.302;14.294;2022-10-19T16:19:15;17.70;99.90
11107;DHT22;5607;48.302;14.294;2022-10-19T16:22:01;17.60;99.90
11107;DHT22;5607;48.302;14.294;2022-10-19T16:24:47;17.50;99.90
11107;DHT22;5607;48.302;14.294;2022-10-19T16:27:33;17.40;99.90
11107;DHT22;5607;48.302;14.294;2022-10-19T16:30:19;17.30;1.00
11107;DHT22;5607;48.302;14.294;2022-10-19T16:33:06;17.30;99.90
11107;DHT22;5607;48.302;14.294;2022-10-19T16:35:52;17.20;99.90
11107;DHT22;5607;48.302;14.294;2022-10-19T16:38:38;17.00;99.90
11107;DHT22;5607;48.302;14.294;2022-10-19T16:41:25;16.90;99.90
11107;DHT22;5607;48.302;14.294;2022-10-19T16:44:11;16.80;1.00
11107;DHT22;5607;48.302;14.294;2022-10-19T16:46:57;16.80;1.00
11107;DHT22;5607;48.302;14.294;2022-10-19T16:49:44;16.70;1.00
11107;DHT22;5607;48.302;14.294;2022-10-19T16:52:30;16.50;1.00
11107;DHT22;5607;48.302;14.294;2022-10-19T16:55:17;16.50;1.00
11107;DHT22;5607;48.302;14.294;2022-10-19T16:58:04;16.30;1.00
11107;DHT22;5607;48.302;14.294;2022-10-19T17:00:50;16.30;1.00
11107;DHT22;5607;48.302;14.294;2022-10-19T17:03:37;16.20;1.00
11107;DHT22;5607;48.302;14.294;2022-10-19T17:06:23;16.10;1.00
11107;DHT22;5607;48.302;14.294;2022-10-19T17:09:10;16.00;1.00
11107;DHT22;5607;48.302;14.294;2022-10-19T17:11:56;16.00;1.00
11107;DHT22;5607;48.302;14.294;2022-10-19T17:14:42;15.90;1.00
11107;DHT22;5607;48.302;14.294;2022-10-19T17:17:28;15.90;1.00
11107;DHT22;5607;48.302;14.294;2022-10-19T17:20:15;15.90;1.00
11107;DHT22;5607;48.302;14.294;2022-10-19T17:23:01;15.90;1.00
11107;DHT22;5607;48.302;14.294;2022-10-19T17:25:47;15.90;1.00
11107;DHT22;5607;48.302;14.294;2022-10-19T17:28:34;15.80;1.00
11107;DHT22;5607;48.302;14.294;2022-10-19T17:31:21;15.90;1.00
11107;DHT22;5607;48.302;14.294;2022-10-19T17:34:07;15.80;1.00
11107;DHT22;5607;48.302;14.294;2022-10-19T17:36:54;15.70;1.00
11107;DHT22;5607;48.302;14.294;2022-10-19T17:39:40;15.70;1.00
11107;DHT22;5607;48.302;14.294;2022-10-19T17:42:26;15.70;1.00
11107;DHT22;5607;48.302;14.294;2022-10-19T17:45:13;15.60;1.00
11107;DHT22;5607;48.302;14.294;2022-10-19T17:47:59;15.50;1.00
11107;DHT22;5607;48.302;14.294;2022-10-19T17:50:54;15.40;1.00
11107;DHT22;5607;48.302;14.294;2022-10-19T17:53:41;15.30;1.00
11107;DHT22;5607;48.302;14.294;2022-10-19T17:56:28;15.20;1.00
11107;DHT22;5607;48.302;14.294;2022-10-19T17:59:14;15.20;1.00
11107;DHT22;5607;48.302;14.294;2022-10-19T18:02:01;15.10;1.00
11107;DHT22;5607;48.302;14.294;2022-10-19T18:04:47;15.10;1.00
11107;DHT22;5607;48.302;14.294;2022-10-19T18:07:33;15.10;1.00
11107;DHT22;5607;48.302;14.294;2022-10-19T18:10:19;15.10;1.00
11107;DHT22;5607;48.302;14.294;2022-10-19T18:13:05;15.00;1.00
11107;DHT22;5607;48.302;14.294;2022-10-19T18:15:52;15.00;1.00
11107;DHT22;5607;48.302;14.294;2022-10-19T18:18:39;14.90;1.00
11107;DHT22;5607;48.302;14.294;2022-10-19T18:21:27;14.80;1.00
11107;DHT22;5607;48.302;14.294;2022-10-19T18:24:14;14.90;1.00
11107;DHT22;5607;48.302;14.294;2022-10-19T18:27:05;14.80;1.00
11107;DHT22;5607;48.302;14.294;2022-10-19T18:29:51;14.80;1.00
11107;DHT22;5607;48.302;14.294;2022-10-19T18:32:37;14.70;1.00
11107;DHT22;5607;48.302;14.294;2022-10-19T18:35:24;14.70;1.00
11107;DHT22;5607;48.302;14.294;2022-10-19T18:38:10;14.70;1.00
11107;DHT22;5607;48.302;14.294;2022-10-19T18:41:02;14.70;1.00
11107;DHT22;5607;48.302;14.294;2022-10-19T18:43:50;14.60;1.00
11107;DHT22;5607;48.302;14.294;2022-10-19T18:46:37;14.60;1.00
11107;DHT22;5607;48.302;14.294;2022-10-19T18:49:24;14.50;1.00
11107;DHT22;5607;48.302;14.294;2022-10-19T18:52:10;14.40;1.00
11107;DHT22;5607;48.302;14.294;2022-10-19T18:54:56;14.40;1.00
11107;DHT22;5607;48.302;14.294;2022-10-19T18:57:43;14.30;1.00
11107;DHT22;5607;48.302;14.294;2022-10-19T19:00:29;14.30;1.00
11107;DHT22;5607;48.302;14.294;2022-10-19T19:03:15;14.30;1.00
11107;DHT22;5607;48.302;14.294;2022-10-19T19:06:03;14.30;1.00
11107;DHT22;5607;48.302;14.294;2022-10-19T19:08:52;14.30;1.00
11107;DHT22;5607;48.302;14.294;2022-10-19T19:11:39;14.30;1.00
11107;DHT22;5607;48.302;14.294;2022-10-19T19:14:25;14.50;1.00
11107;DHT22;5607;48.302;14.294;2022-10-19T19:17:12;14.40;1.00
11107;DHT22;5607;48.302;14.294;2022-10-19T19:19:58;14.50;1.00
11107;DHT22;5607;48.302;14.294;2022-10-19T19:22:44;14.40;1.00
11107;DHT22;5607;48.302;14.294;2022-10-19T19:25:30;14.40;1.00
11107;DHT22;5607;48.302;14.294;2022-10-19T19:28:16;14.40;1.00
11107;DHT22;5607;48.302;14.294;2022-10-19T19:31:03;14.40;1.00